Time;durP1;ratioP1;P1;durP2;ratioP2;P2;SDS_P1;SDS_P2;PMS_P1;PMS_P2;Temp;Humidity;BMP_temperature;BMP_pressure;BME280_temperature;BME280_humidity;BME280_pressure;Samples;Min_cycle;Max_cycle;Signal;HPM_P1;HPM_P2
2022/10/27 00:00:33;;;;;;;;;3.75;2.00;;;;;15.80;100.00;101076.91;5079606;27;48425;-89
2022/10/27 00:02:58;;;;;;;;;3.50;2.25;;;;;15.58;100.00;101039.44;5078870;27;45607;-89
2022/10/27 00:05:24;;;;;;;;;1.25;1.25;;;;;15.38;100.00;100997.44;5095748;27;45327;-89
2022/10/27 00:07:50;;;;;;;;;1.50;1.50;;;;;15.37;100.00;101017.91;5080570;27;45248;-89
2022/10/27 00:10:16;;;;;;;;;3.75;3.75;;;;;15.71;100.00;101070.03;5078905;27;46962;-89
2022/10/27 00:12:42;;;;;;;;;2.00;2.00;;;;;15.45;100.00;101029.16;5078304;27;45508;-90
2022/10/27 00:15:08;;;;;;;;;1.50;1.50;;;;;15.33;100.00;101021.56;5079507;27;45599;-89
2022/10/27 00:17:34;;;;;;;;;1.75;1.75;;;;;15.31;100.00;101028.75;5079805;27;45522;-89
2022/10/27 00:19:59;;;;;;;;;0.75;0.75;;;;;15.79;100.00;101110.69;5077757;27;47959;-89
2022/10/27 00:22:25;;;;;;;;;1.50;1.50;;;;;15.14;100.00;101017.75;5078572;27;45480;-89
2022/10/27 00:24:50;;;;;;;;;2.00;1.50;;;;;15.54;100.00;101072.41;5078242;27;45434;-89
2022/10/27 00:27:15;;;;;;;;;2.00;2.00;;;;;15.19;100.00;101026.50;5083983;27;44966;-92
2022/10/27 00:29:41;;;;;;;;;2.50;2.00;;;;;15.59;100.00;101094.44;5096774;27;46669;-92
2022/10/27 00:32:09;;;;;;;;;2.00;2.00;;;;;15.74;100.00;101107.25;5085145;27;45247;-89
2022/10/27 00:34:34;;;;;;;;;1.50;1.50;;;;;14.62;100.00;100933.34;5080635;27;45331;-89
2022/10/27 00:37:00;;;;;;;;;1.50;1.50;;;;;14.61;100.00;100923.63;5085238;27;45529;-90
2022/10/27 00:39:25;;;;;;;;;2.75;2.75;;;;;15.70;100.00;101113.63;5079136;27;47439;-90
2022/10/27 00:41:50;;;;;;;;;1.00;1.00;;;;;15.69;100.00;101124.31;5079435;27;45425;-89
2022/10/27 00:44:36;;;;;;;;;3.00;1.50;;;;;15.65;100.00;101104.88;5082562;27;45611;-88
2022/10/27 00:47:33;;;;;;;;;2.50;0.75;;;;;15.64;100.00;101105.81;5080356;27;45566;-90
2022/10/27 00:50:08;;;;;;;;;3.00;3.00;;;;;14.36;100.00;100891.56;5076418;27;47161;-90
2022/10/27 00:52:47;;;;;;;;;2.00;2.00;;;;;15.45;100.00;101077.09;5089751;27;45423;-89
2022/10/27 00:55:17;;;;;;;;;2.50;1.00;;;;;15.50;100.00;101092.06;5076999;27;45393;-89
2022/10/27 00:57:46;;;;;;;;;4.00;4.00;;;;;14.44;100.00;100907.28;5079836;27;45357;-89
2022/10/27 01:00:12;;;;;;;;;2.50;2.50;;;;;14.98;100.00;101007.59;5099930;27;46200;-90
2022/10/27 01:02:38;;;;;;;;;3.50;3.00;;;;;14.97;100.00;101005.88;5075606;27;46359;-89
2022/10/27 01:05:25;;;;;;;;;1.25;1.25;;;;;15.29;100.00;101059.91;5075618;27;45408;-90
2022/10/27 01:07:54;;;;;;;;;2.00;1.00;;;;;15.35;100.00;101070.34;5074446;27;45472;-90
2022/10/27 01:10:21;;;;;;;;;1.50;1.50;;;;;14.99;100.00;101012.00;5076108;27;47206;-90
2022/10/27 01:12:46;;;;;;;;;3.00;2.00;;;;;14.46;100.00;100926.72;5078345;27;45326;-93
2022/10/27 01:15:13;;;;;;;;;4.00;3.00;;;;;14.30;100.00;100910.34;5082157;27;45201;-93
2022/10/27 01:17:49;;;;;;;;;1.50;1.50;;;;;14.61;100.00;100968.84;5101465;27;45531;-93
2022/10/27 01:20:39;;;;;;;;;1.50;1.00;;;;;15.38;100.00;101091.56;5095362;27;47445;-92
2022/10/27 01:23:30;;;;;;;;;1.00;1.00;;;;;15.36;100.00;101093.38;5088826;27;45319;-93
2022/10/27 01:26:10;;;;;;;;;2.00;2.00;;;;;15.34;100.00;101087.22;5081647;27;45199;-93
2022/10/27 01:28:48;;;;;;;;;2.50;2.50;;;;;15.32;100.00;101083.75;5080492;27;45588;-92
2022/10/27 01:31:20;;;;;;;;;3.75;2.00;;;;;15.15;100.00;101054.97;5079400;27;48040;-93
2022/10/27 01:33:58;;;;;;;;;1.50;1.50;;;;;14.16;100.00;100894.81;5083690;27;45341;-93
2022/10/27 01:36:32;;;;;;;;;2.00;2.00;;;;;14.52;100.00;100954.00;5094521;27;45279;-92
2022/10/27 01:39:24;;;;;;;;;2.00;2.00;;;;;14.52;100.00;100969.09;5092839;27;45232;-93
2022/10/27 01:41:55;;;;;;;;;2.75;2.75;;;;;14.51;100.00;100957.56;5080704;27;47214;-93
2022/10/27 01:44:28;;;;;;;;;3.50;3.25;;;;;14.86;100.00;101021.28;5100370;27;45223;-93
2022/10/27 01:46:56;;;;;;;;;3.00;2.00;;;;;14.49;100.00;100964.72;5085960;27;45211;-92
2022/10/27 01:49:22;;;;;;;;;1.75;1.75;;;;;14.61;100.00;100986.59;5081227;27;45281;-93
2022/10/27 01:51:48;;;;;;;;;2.00;2.00;;;;;14.56;100.00;100976.94;5080212;27;46243;-93
2022/10/27 01:54:15;;;;;;;;;2.00;2.00;;;;;14.49;100.00;100971.84;5099825;27;45824;-92
2022/10/27 01:57:06;;;;;;;;;2.50;2.50;;;;;15.12;100.00;101076.38;5084938;27;45485;-89
2022/10/27 01:59:41;;;;;;;;;2.50;2.25;;;;;15.11;100.00;101079.97;5098078;27;45037;-89
2022/10/27 02:02:24;;;;;;;;;2.25;2.25;;;;;15.09;100.00;101080.03;5076543;27;47503;-89
2022/10/27 02:05:23;;;;;;;;;3.00;3.00;;;;;14.34;100.00;100952.75;5075404;27;45509;-89
2022/10/27 02:08:06;;;;;;;;;4.75;2.00;;;;;14.88;100.00;101040.78;5076724;27;45364;-89
2022/10/27 02:10:44;;;;;;;;;3.25;2.00;;;;;14.86;100.00;101042.59;5074832;27;45609;-89
2022/10/27 02:13:11;;;;;;;;;1.50;1.50;;;;;14.57;100.00;100994.66;5076067;27;47724;-90
2022/10/27 02:15:42;;;;;;;;;2.75;2.75;;;;;14.85;100.00;101038.16;5094534;27;45316;-89
2022/10/27 02:18:11;;;;;;;;;4.50;4.00;;;;;14.50;100.00;100978.88;5078536;27;44937;-89
2022/10/27 02:20:42;;;;;;;;;5.00;2.00;;;;;14.17;100.00;100925.81;5080030;27;45519;-89
2022/10/27 02:23:13;;;;;;;;;3.00;2.00;;;;;13.85;100.00;100866.50;5086438;27;47903;-89
2022/10/27 02:25:57;;;;;;;;;1.50;1.50;;;;;14.38;100.00;100957.06;5090548;27;45271;-89
2022/10/27 02:28:32;;;;;;;;;2.25;2.00;;;;;13.82;100.00;100871.91;5087126;27;45446;-89
2022/10/27 02:30:59;;;;;;;;;4.00;4.00;;;;;14.41;100.00;100961.44;5076311;27;45573;-89
2022/10/27 02:33:25;;;;;;;;;3.50;2.50;;;;;14.36;100.00;100947.38;5075812;27;47214;-89
2022/10/27 02:35:52;;;;;;;;;2.25;2.25;;;;;14.63;100.00;101004.25;5082752;27;45627;-91
2022/10/27 02:38:17;;;;;;;;;2.50;2.50;;;;;14.20;100.00;100923.06;5081198;27;45372;-91
2022/10/27 02:40:42;;;;;;;;;2.75;2.75;;;;;14.06;100.00;100896.91;5079840;27;45390;-92
2022/10/27 02:43:08;;;;;;;;;3.75;3.00;;;;;14.83;100.00;101043.53;5077366;27;48360;-88
2022/10/27 02:45:33;;;;;;;;;1.50;1.50;;;;;14.04;100.00;100904.91;5076113;27;45680;-88
2022/10/27 02:47:58;;;;;;;;;2.00;2.00;;;;;14.00;100.00;100892.63;5076617;27;45455;-90
2022/10/27 02:50:24;;;;;;;;;3.50;3.50;;;;;14.27;100.00;100934.38;5075262;27;45505;-90
2022/10/27 02:52:49;;;;;;;;;3.25;3.25;;;;;13.69;100.00;100855.44;5076612;27;45510;-90
2022/10/27 02:55:15;;;;;;;;;2.50;2.50;;;;;13.76;100.00;100861.47;5075784;27;45427;-90
2022/10/27 02:57:40;;;;;;;;;3.25;2.00;;;;;13.97;100.00;100899.81;5075624;27;45418;-90
2022/10/27 03:00:06;;;;;;;;;2.50;2.25;;;;;14.19;100.00;100950.56;5075032;27;45510;-88
2022/10/27 03:02:32;;;;;;;;;3.00;3.00;;;;;14.77;100.00;101058.81;5075773;27;47168;-90
2022/10/27 03:05:02;;;;;;;;;4.50;2.50;;;;;14.18;100.00;100948.81;5075987;27;45460;-90
2022/10/27 03:07:27;;;;;;;;;4.25;4.00;;;;;14.25;100.00;100960.16;5078335;27;45405;-89
2022/10/27 03:09:52;;;;;;;;;2.50;2.50;;;;;14.27;100.00;100969.84;5076785;27;45575;-90
2022/10/27 03:12:18;;;;;;;;;2.50;2.50;;;;;13.57;100.00;100846.03;5075645;27;47988;-90
2022/10/27 03:14:43;;;;;;;;;2.75;2.75;;;;;13.98;100.00;100921.03;5057928;27;45430;-90
2022/10/27 03:17:09;;;;;;;;;3.50;3.50;;;;;14.12;100.00;100938.34;5075642;27;45727;-90
2022/10/27 03:19:34;;;;;;;;;1.25;1.25;;;;;14.55;100.00;101004.44;5074588;27;45596;-90
2022/10/27 03:21:59;;;;;;;;;2.00;2.00;;;;;14.18;100.00;100956.78;5077972;27;47484;-89
2022/10/27 03:24:25;;;;;;;;;2.00;2.00;;;;;14.12;100.00;100936.59;5080549;27;45597;-90
2022/10/27 03:26:50;;;;;;;;;2.00;2.00;;;;;13.68;100.00;100870.50;5086573;27;44848;-90
2022/10/27 03:29:15;;;;;;;;;3.25;3.25;;;;;13.93;100.00;100930.91;5081594;27;45488;-90
2022/10/27 03:31:41;;;;;;;;;2.00;2.00;;;;;14.63;100.00;101044.13;5100828;27;46564;-90
2022/10/27 03:34:06;;;;;;;;;3.00;3.00;;;;;13.76;100.00;100893.34;5086558;27;45370;-90
2022/10/27 03:36:31;;;;;;;;;2.50;2.50;;;;;14.06;100.00;100966.00;5083469;27;46230;-89
2022/10/27 03:38:57;;;;;;;;;3.50;2.75;;;;;13.48;100.00;100840.97;5079353;27;45538;-89
2022/10/27 03:41:22;;;;;;;;;3.00;3.00;;;;;14.07;100.00;100950.91;5079275;27;47982;-87
2022/10/27 03:43:47;;;;;;;;;3.75;3.75;;;;;14.60;100.00;101030.91;5081662;27;45697;-89
2022/10/27 03:46:13;;;;;;;;;4.25;3.00;;;;;14.38;100.00;101004.94;5083507;27;45339;-89
2022/10/27 03:48:38;;;;;;;;;3.00;3.00;;;;;14.14;100.00;100963.97;5100582;27;45418;-90
2022/10/27 03:51:04;;;;;;;;;3.00;2.00;;;;;14.38;100.00;101004.94;5072274;27;47197;-89
2022/10/27 03:53:29;;;;;;;;;3.00;2.00;;;;;13.52;100.00;100858.56;5066506;28;45523;-90
2022/10/27 03:55:54;;;;;;;;;2.00;2.00;;;;;13.83;100.00;100916.13;5060565;27;45665;-89
2022/10/27 03:58:20;;;;;;;;;2.00;2.00;;;;;14.03;100.00;100951.00;5071022;27;45445;-93
2022/10/27 04:00:45;;;;;;;;;5.00;2.25;;;;;14.08;100.00;100957.97;5081901;27;46125;-94
2022/10/27 04:03:11;;;;;;;;;4.50;4.50;;;;;13.72;100.00;100900.50;5083032;27;45253;-93
2022/10/27 04:05:38;;;;;;;;;2.00;2.00;;;;;13.70;100.00;100897.03;5076136;28;45336;-90
2022/10/27 04:08:03;;;;;;;;;3.75;3.75;;;;;14.52;100.00;101028.47;5060600;27;45497;-89
2022/10/27 04:10:29;;;;;;;;;3.75;2.75;;;;;13.99;100.00;100952.00;5044073;27;47308;-89
2022/10/27 04:12:56;;;;;;;;;2.75;2.75;;;;;14.46;100.00;101019.81;5060956;28;45902;-89
2022/10/27 04:15:24;;;;;;;;;3.00;3.00;;;;;14.50;100.00;101045.38;5062662;27;45371;-89
2022/10/27 04:17:55;;;;;;;;;4.00;3.00;;;;;14.38;100.00;101022.69;5061298;28;45572;-90
2022/10/27 04:20:20;;;;;;;;;3.50;3.50;;;;;14.10;100.00;100977.41;5076291;28;47275;-88
2022/10/27 04:22:46;;;;;;;;;2.25;2.25;;;;;14.27;100.00;100999.06;5072944;27;45525;-89
2022/10/27 04:25:12;;;;;;;;;3.00;3.00;;;;;13.77;100.00;100913.66;5081429;27;45476;-88
2022/10/27 04:27:37;;;;;;;;;3.75;3.75;;;;;13.83;100.00;100942.69;5066177;28;45619;-88
2022/10/27 04:30:03;;;;;;;;;1.75;1.75;;;;;13.80;100.00;100926.84;5061372;27;47483;-90
2022/10/27 04:32:28;;;;;;;;;3.00;3.00;;;;;13.91;100.00;100947.78;5058874;27;45370;-90
2022/10/27 04:34:54;;;;;;;;;3.50;3.50;;;;;13.39;100.00;100857.16;5064797;27;45454;-89
2022/10/27 04:37:19;;;;;;;;;3.75;3.75;;;;;14.06;100.00;100971.31;5065232;27;45472;-89
2022/10/27 04:39:44;;;;;;;;;4.00;4.00;;;;;14.16;100.00;100987.84;5072524;27;46942;-89
2022/10/27 04:42:10;;;;;;;;;5.50;3.50;;;;;13.76;100.00;100911.94;5070118;27;45474;-89
2022/10/27 04:44:35;;;;;;;;;2.00;2.00;;;;;13.35;100.00;100850.22;5060581;28;45532;-89
2022/10/27 04:47:01;;;;;;;;;3.00;2.25;;;;;13.76;100.00;100914.59;5070613;28;45249;-89
2022/10/27 04:49:26;;;;;;;;;2.00;2.00;;;;;14.37;100.00;101013.81;5069296;27;48273;-89
2022/10/27 04:51:52;;;;;;;;;4.75;3.50;;;;;13.84;100.00;100928.50;5092406;27;45509;-92
2022/10/27 04:54:17;;;;;;;;;3.75;3.75;;;;;13.80;100.00;100922.44;5082723;27;45410;-89
2022/10/27 04:56:42;;;;;;;;;2.00;2.00;;;;;13.83;100.00;100945.34;5069307;27;45441;-89
2022/10/27 04:59:09;;;;;;;;;3.25;3.25;;;;;13.23;100.00;100833.66;5059821;27;47899;-89
2022/10/27 05:01:34;;;;;;;;;4.50;2.00;;;;;13.82;100.00;100928.56;5067340;27;45687;-89
2022/10/27 05:04:00;;;;;;;;;4.00;4.00;;;;;13.70;100.00;100914.75;5065430;28;45336;-93
2022/10/27 05:06:25;;;;;;;;;6.00;3.75;;;;;13.26;100.00;100838.00;5061654;28;45299;-92
2022/10/27 05:08:50;;;;;;;;;5.75;4.50;;;;;13.66;100.00;100912.19;5059926;28;48272;-92
2022/10/27 05:11:16;;;;;;;;;4.00;3.75;;;;;14.32;100.00;101031.72;5082885;28;45720;-93
2022/10/27 05:13:41;;;;;;;;;5.50;4.25;;;;;13.60;100.00;100895.53;5082508;28;45312;-93
2022/10/27 05:16:07;;;;;;;;;6.25;6.25;;;;;13.02;100.00;100795.28;5076977;28;45320;-88
2022/10/27 05:18:32;;;;;;;;;3.00;3.00;;;;;13.84;100.00;100920.53;5078269;28;47715;-88
2022/10/27 05:20:58;;;;;;;;;4.75;4.75;;;;;13.80;100.00;100926.84;5064986;28;45423;-89
2022/10/27 05:23:23;;;;;;;;;5.50;4.50;;;;;13.32;100.00;100846.66;5080048;27;45533;-92
2022/10/27 05:25:53;;;;;;;;;5.75;4.75;;;;;13.94;100.00;100945.94;5079612;28;45213;-92
2022/10/27 05:28:19;;;;;;;;;5.75;5.75;;;;;13.76;100.00;100925.22;5064748;28;48431;-92
2022/10/27 05:30:44;;;;;;;;;5.00;5.00;;;;;13.78;100.00;100916.25;5062276;28;45355;-93
2022/10/27 05:33:10;;;;;;;;;5.25;5.00;;;;;13.59;100.00;100883.16;5063736;28;45624;-93
2022/10/27 05:35:35;;;;;;;;;3.50;3.00;;;;;13.32;100.00;100851.97;5061241;28;45451;-92
2022/10/27 05:38:01;;;;;;;;;4.00;3.00;;;;;13.56;100.00;100891.22;5061065;28;47872;-92
2022/10/27 05:40:32;;;;;;;;;3.00;3.00;;;;;13.50;100.00;100876.34;5063151;28;45330;-92
2022/10/27 05:42:59;;;;;;;;;5.50;5.50;;;;;12.96;100.00;100791.00;5081559;28;45356;-91
2022/10/27 05:45:24;;;;;;;;;4.00;4.00;;;;;13.22;100.00;100817.78;5060072;28;45268;-92
2022/10/27 05:47:57;;;;;;;;;3.50;3.50;;;;;13.87;100.00;100925.78;5063870;28;47231;-91
2022/10/27 05:50:22;;;;;;;;;4.75;3.00;;;;;13.31;100.00;100834.31;5071784;28;45451;-92
2022/10/27 05:52:47;;;;;;;;;3.25;3.25;;;;;13.79;100.00;100920.66;5083375;28;45232;-92
2022/10/27 05:55:13;;;;;;;;;5.00;5.00;;;;;13.23;100.00;100820.38;5062007;28;45292;-94
2022/10/27 05:57:38;;;;;;;;;5.00;5.00;;;;;13.81;100.00;100912.66;5060602;28;46833;-90
2022/10/27 06:00:04;;;;;;;;;3.00;3.00;;;;;13.03;100.00;100781.13;5059303;28;45356;-91
2022/10/27 06:02:30;;;;;;;;;5.00;5.00;;;;;13.78;100.00;100910.94;5065614;28;45275;-93
2022/10/27 06:04:55;;;;;;;;;4.25;4.25;;;;;11.59;100.00;100525.97;5072018;28;45668;-91
2022/10/27 06:07:20;;;;;;;;;2.50;2.00;;;;;13.27;100.00;100811.44;5061778;28;47255;-92
2022/10/27 06:09:46;;;;;;;;;5.00;5.00;;;;;13.25;100.00;100810.59;5076074;28;45442;-91
2022/10/27 06:12:11;;;;;;;;;3.50;3.50;;;;;12.65;100.00;100697.25;5077130;27;45867;-92
2022/10/27 06:14:37;;;;;;;;;3.25;3.25;;;;;14.32;100.00;100980.31;5067407;28;45313;-91
2022/10/27 06:17:02;;;;;;;;;4.50;4.50;;;;;13.43;100.00;100848.19;5079329;28;46719;-91
2022/10/27 06:19:28;;;;;;;;;3.75;3.75;;;;;13.92;100.00;100910.56;5091966;27;44887;-91
2022/10/27 06:21:53;;;;;;;;;3.25;3.00;;;;;13.94;100.00;100918.47;5067986;28;45597;-91
2022/10/27 06:24:19;;;;;;;;;4.50;4.00;;;;;13.09;100.00;100754.41;5069749;28;45415;-92
2022/10/27 06:26:45;;;;;;;;;4.75;4.75;;;;;14.40;100.00;100971.19;5058149;28;47038;-92
2022/10/27 06:29:10;;;;;;;;;4.25;4.00;;;;;14.03;100.00;100912.94;5074914;27;45341;-93
2022/10/27 06:31:38;;;;;;;;;4.75;4.75;;;;;13.91;100.00;100871.63;5059046;28;45205;-91
2022/10/27 06:34:03;;;;;;;;;4.75;3.00;;;;;13.94;100.00;100873.31;5060889;28;45078;-92
2022/10/27 06:36:29;;;;;;;;;4.75;4.75;;;;;13.21;100.00;100747.00;5060095;28;46989;-92
2022/10/27 06:38:54;;;;;;;;;5.50;4.00;;;;;14.11;100.00;100912.72;5067356;28;45428;-91
2022/10/27 06:41:20;;;;;;;;;2.75;2.75;;;;;13.44;100.00;100797.72;5070035;28;44879;-91
2022/10/27 06:43:45;;;;;;;;;3.00;3.00;;;;;12.68;100.00;100652.97;5067898;27;45537;-91
2022/10/27 06:46:11;;;;;;;;;3.75;3.75;;;;;14.04;100.00;100883.66;5059606;28;45670;-91
2022/10/27 06:48:36;;;;;;;;;3.00;3.00;;;;;13.82;100.00;100851.50;5064010;28;45481;-92
2022/10/27 06:51:02;;;;;;;;;6.00;4.75;;;;;13.13;100.00;100718.03;5077438;28;45442;-92
2022/10/27 06:53:27;;;;;;;;;3.00;3.00;;;;;14.01;100.00;100865.16;5061599;28;45155;-91
2022/10/27 06:55:55;;;;;;;;;2.00;2.00;;;;;13.47;100.00;100778.19;5082450;27;47324;-92
2022/10/27 06:58:20;;;;;;;;;3.75;3.75;;;;;12.67;100.00;100634.47;5101168;27;45243;-91
2022/10/27 07:00:46;;;;;;;;;3.00;3.00;;;;;14.12;100.00;100877.22;5083068;28;45275;-91
2022/10/27 07:03:12;;;;;;;;;4.50;3.75;;;;;14.30;100.00;100911.25;5067533;28;45606;-93
2022/10/27 07:05:37;;;;;;;;;4.00;4.00;;;;;14.10;100.00;100881.72;5090925;28;48290;-92
2022/10/27 07:08:03;;;;;;;;;5.50;4.75;;;;;13.22;100.00;100740.81;5077750;28;45411;-91
2022/10/27 07:10:29;;;;;;;;;6.50;5.25;;;;;13.31;100.00;100759.13;5079262;28;45335;-92
2022/10/27 07:13:01;;;;;;;;;5.00;4.75;;;;;13.92;100.00;100862.72;5080051;28;45415;-92
2022/10/27 07:15:31;;;;;;;;;5.00;5.00;;;;;13.99;100.00;100868.75;5064240;28;46995;-91
2022/10/27 07:17:59;;;;;;;;;8.00;7.00;;;;;14.62;100.00;100973.25;5073041;28;45325;-92
2022/10/27 07:20:25;;;;;;;;;4.25;4.00;;;;;14.34;100.00;100926.16;5079456;28;45294;-91
2022/10/27 07:22:50;;;;;;;;;4.75;4.75;;;;;14.60;100.00;100940.47;5075933;28;45414;-93
2022/10/27 07:25:16;;;;;;;;;4.25;4.25;;;;;12.70;100.00;100614.00;5066340;28;46982;-91
2022/10/27 07:27:46;;;;;;;;;3.00;3.00;;;;;12.77;100.00;100606.78;5073241;28;45273;-92
2022/10/27 07:30:12;;;;;;;;;4.75;4.75;;;;;14.89;100.00;100970.63;5067619;28;45415;-92
2022/10/27 07:32:37;;;;;;;;;5.00;5.00;;;;;14.13;97.60;100855.91;5063442;28;45427;-93
2022/10/27 07:35:03;;;;;;;;;6.00;6.00;;;;;13.94;96.32;100828.13;5076518;28;46132;-92
2022/10/27 07:37:29;;;;;;;;;8.00;7.00;;;;;14.73;97.07;100979.09;5077752;27;45489;-92
2022/10/27 07:39:54;;;;;;;;;8.50;7.25;;;;;14.50;96.33;100912.41;5069462;28;45342;-92
2022/10/27 07:42:19;;;;;;;;;5.75;5.75;;;;;14.31;96.94;100851.81;5081987;27;45248;-91
2022/10/27 07:44:45;;;;;;;;;7.00;7.00;;;;;13.86;97.85;100793.84;5079719;28;47474;-92
2022/10/27 07:47:10;;;;;;;;;8.50;6.00;;;;;15.16;96.76;101022.13;5064987;28;45389;-92
2022/10/27 07:49:36;;;;;;;;;4.50;4.00;;;;;14.95;94.38;100957.13;5069537;27;45394;-93
2022/10/27 07:52:01;;;;;;;;;4.25;4.25;;;;;14.96;97.01;100942.06;5084017;27;45269;-92
2022/10/27 07:54:28;;;;;;;;;5.50;4.75;;;;;15.14;96.75;100945.88;5083593;27;45924;-92
2022/10/27 07:57:00;;;;;;;;;5.00;5.00;;;;;15.58;97.13;100984.34;5106972;27;45335;-91
2022/10/27 07:59:25;;;;;;;;;10.50;5.75;;;;;14.97;97.09;100869.25;5099226;27;44803;-90
2022/10/27 08:01:51;;;;;;;;;8.25;5.75;;;;;15.17;97.24;100865.91;5090633;27;45545;-92
2022/10/27 08:04:18;;;;;;;;;6.00;5.50;;;;;16.16;95.58;101025.88;5084700;27;47929;-92
2022/10/27 08:07:12;;;;;;;;;6.75;5.75;;;;;15.82;96.68;100936.47;5088135;27;45421;-90
2022/10/27 08:09:40;;;;;;;;;7.25;6.75;;;;;15.69;96.66;100895.19;5091141;27;45382;-92
2022/10/27 08:12:06;;;;;;;;;7.00;7.00;;;;;14.80;96.64;100734.13;5091826;27;45405;-94
2022/10/27 08:14:31;;;;;;;;;9.50;7.50;;;;;15.71;96.92;100872.84;5097675;27;47812;-92
2022/10/27 08:17:02;;;;;;;;;4.00;3.75;;;;;15.18;97.06;100783.31;5091670;27;44778;-91
2022/10/27 08:19:28;;;;;;;;;8.00;8.00;;;;;16.11;97.42;100943.41;5094237;27;45399;-90
2022/10/27 08:21:53;;;;;;;;;9.25;8.25;;;;;14.45;97.51;100665.22;5083800;27;45601;-92
2022/10/27 08:24:19;;;;;;;;;10.00;8.00;;;;;15.46;96.91;100831.13;5084549;27;47242;-92
2022/10/27 08:26:45;;;;;;;;;11.50;7.00;;;;;15.65;96.57;100881.09;5103464;27;45319;-91
2022/10/27 08:29:10;;;;;;;;;10.00;9.25;;;;;15.97;96.87;100945.69;5083056;27;45419;-92
2022/10/27 08:31:36;;;;;;;;;9.25;8.75;;;;;16.08;96.30;100959.50;5085174;27;45489;-91
2022/10/27 08:34:01;;;;;;;;;8.50;8.50;;;;;15.77;96.22;100920.63;5082970;27;47090;-92
2022/10/27 08:36:28;;;;;;;;;13.50;10.00;;;;;15.87;95.74;100941.66;5083031;27;45374;-92
2022/10/27 08:38:54;;;;;;;;;11.50;10.50;;;;;16.30;94.80;101010.25;5083853;27;45474;-92
2022/10/27 08:45:25;;;;;;;;;7.50;7.50;;;;;16.50;94.70;101043.31;5104293;27;45407;-94
2022/10/27 08:47:54;;;;;;;;;11.75;10.00;;;;;16.02;95.62;100959.75;5085864;27;45273;-90
2022/10/27 08:50:23;;;;;;;;;9.25;7.50;;;;;16.17;96.63;100988.50;5083839;27;45274;-91
2022/10/27 08:53:04;;;;;;;;;5.50;5.50;;;;;15.94;95.96;100954.69;5071889;27;45265;-90
2022/10/27 08:55:50;;;;;;;;;8.00;8.00;;;;;16.30;95.88;101018.25;5094033;27;45617;-92
2022/10/27 08:58:35;;;;;;;;;13.25;11.75;;;;;15.71;95.93;100911.97;5103432;27;45325;-92
2022/10/27 09:01:10;;;;;;;;;13.00;9.00;;;;;16.56;96.38;101055.56;5099748;27;45391;-90
2022/10/27 09:03:47;;;;;;;;;9.25;9.25;;;;;16.59;96.93;101047.44;5087226;27;45674;-92
2022/10/27 09:06:28;;;;;;;;;9.50;7.50;;;;;16.63;96.93;101047.25;5086768;27;46426;-90
2022/10/27 09:09:27;;;;;;;;;9.25;8.00;;;;;16.71;97.37;101060.31;5084662;27;45345;-90
2022/10/27 09:11:52;;;;;;;;;8.00;6.00;;;;;16.78;94.90;101056.50;5090577;27;44690;-92
2022/10/27 09:14:37;;;;;;;;;10.25;9.00;;;;;16.84;95.52;101058.06;5084658;27;45352;-90
2022/10/27 09:17:34;;;;;;;;;11.00;9.00;;;;;16.92;95.46;101060.47;5087623;27;46122;-90
2022/10/27 09:20:28;;;;;;;;;9.50;9.25;;;;;17.01;96.22;101066.31;5021366;28;45343;-93
2022/10/27 09:22:58;;;;;;;;;11.00;9.50;;;;;17.09;95.67;101052.66;5024619;28;45482;-92
2022/10/27 09:25:23;;;;;;;;;9.25;9.25;;;;;16.69;96.54;100968.78;5023620;28;45507;-93
2022/10/27 09:27:53;;;;;;;;;9.75;8.00;;;;;16.09;95.52;100878.59;5021582;28;47971;-93
2022/10/27 09:30:19;;;;;;;;;10.25;8.25;;;;;17.05;96.34;101024.34;5024462;28;45350;-92
2022/10/27 09:32:59;;;;;;;;;10.75;10.25;;;;;16.40;95.61;100914.75;5027260;28;45312;-93
2022/10/27 09:35:30;;;;;;;;;8.00;8.00;;;;;16.33;89.64;100897.25;5026419;28;44997;-93
2022/10/27 09:37:58;;;;;;;;;9.75;7.00;;;;;16.71;92.07;100940.22;5031608;28;46194;-92
2022/10/27 09:40:44;;;;;;;;;7.00;6.50;;;;;17.59;92.62;101105.84;5053611;28;44885;-91
2022/10/27 09:43:10;;;;;;;;;10.00;10.00;;;;;16.71;92.98;100918.88;5042178;28;44803;-92
2022/10/27 09:45:36;;;;;;;;;7.00;6.00;;;;;16.62;92.46;100888.06;5034284;28;45266;-92
2022/10/27 09:48:09;;;;;;;;;8.00;7.00;;;;;16.57;93.11;100870.53;5028223;28;46567;-93
2022/10/27 09:50:39;;;;;;;;;11.50;10.00;;;;;17.10;88.09;100914.69;5028939;28;45396;-92
2022/10/27 09:53:25;;;;;;;;;7.00;7.00;;;;;16.14;89.42;100726.47;5027187;28;45260;-92
2022/10/27 09:55:52;;;;;;;;;9.00;6.25;;;;;17.36;87.62;100889.53;5058167;27;45583;-93
2022/10/27 09:58:19;;;;;;;;;6.50;6.50;;;;;18.02;88.88;100998.94;5081384;27;47804;-93
2022/10/27 10:00:55;;;;;;;;;10.00;7.25;;;;;18.08;87.51;100971.03;5082413;27;45437;-93
2022/10/27 10:03:21;;;;;;;;;7.00;5.75;;;;;17.94;86.80;100934.22;5082380;27;45384;-94
2022/10/27 10:06:00;;;;;;;;;6.00;6.00;;;;;17.77;86.06;100889.50;5085082;27;45705;-92
2022/10/27 10:08:28;;;;;;;;;6.00;6.00;;;;;17.08;84.80;100772.34;5089756;27;48541;-92
2022/10/27 10:11:06;;;;;;;;;8.75;8.75;;;;;18.38;84.69;100976.78;5099780;27;44835;-92
2022/10/27 10:13:36;;;;;;;;;5.75;5.75;;;;;18.16;83.70;100947.50;5084679;27;45403;-92
2022/10/27 10:16:12;;;;;;;;;10.00;8.75;;;;;18.41;85.55;100986.47;5087085;27;45284;-92
2022/10/27 10:18:39;;;;;;;;;8.75;7.00;;;;;18.44;87.14;100994.38;5089008;27;46439;-93
2022/10/27 10:21:08;;;;;;;;;7.00;5.75;;;;;18.38;88.70;100959.88;5091834;27;45375;-92
2022/10/27 10:23:35;;;;;;;;;7.75;7.25;;;;;17.83;88.23;100873.19;5089587;27;45310;-93
2022/10/27 10:26:04;;;;;;;;;7.25;7.25;;;;;18.55;86.80;100993.88;5092211;27;45220;-91
2022/10/27 10:28:38;;;;;;;;;7.25;6.25;;;;;18.58;88.96;100988.38;5082252;27;46996;-91
2022/10/27 10:31:07;;;;;;;;;5.75;5.25;;;;;17.71;88.23;100837.16;5102220;27;45561;-91
2022/10/27 10:33:45;;;;;;;;;9.50;5.75;;;;;19.20;89.14;101071.19;5096257;27;45414;-91
2022/10/27 10:36:25;;;;;;;;;9.00;7.25;;;;;19.26;86.47;101063.69;5093566;27;45593;-91
2022/10/27 10:38:55;;;;;;;;;5.00;5.00;;;;;18.40;87.37;100920.50;5088638;27;46906;-91
2022/10/27 10:41:22;;;;;;;;;8.00;8.00;;;;;17.63;87.91;100779.66;5085786;27;45319;-90
2022/10/27 10:44:10;;;;;;;;;7.75;7.75;;;;;19.46;83.12;101089.50;5087275;27;45276;-91
2022/10/27 10:46:40;;;;;;;;;9.00;6.25;;;;;18.25;86.83;100857.91;5098734;27;45716;-92
2022/10/27 10:49:20;;;;;;;;;5.25;5.25;;;;;18.86;85.72;100955.84;5092572;27;47648;-91
2022/10/27 10:51:54;;;;;;;;;7.00;6.25;;;;;18.27;87.17;100835.50;5111634;27;44853;-91
2022/10/27 10:54:28;;;;;;;;;8.00;8.00;;;;;19.22;86.76;100988.91;5099434;27;44799;-91
2022/10/27 10:56:54;;;;;;;;;7.50;6.00;;;;;18.82;87.98;100903.34;5105131;27;45523;-91
2022/10/27 10:59:24;;;;;;;;;7.25;6.50;;;;;19.50;88.21;101021.41;5102147;27;47600;-91
2022/10/27 11:02:18;;;;;;;;;8.25;7.25;;;;;19.81;86.79;101051.19;5084356;27;45573;-92
2022/10/27 11:04:46;;;;;;;;;7.25;5.25;;;;;18.91;88.13;100910.09;5084651;27;45628;-90
2022/10/27 11:07:18;;;;;;;;;5.75;5.50;;;;;19.86;87.38;101058.06;5104107;27;45279;-91
2022/10/27 11:09:59;;;;;;;;;8.50;6.75;;;;;19.91;88.09;101073.06;5086717;27;47252;-90
2022/10/27 11:12:37;;;;;;;;;7.75;7.75;;;;;19.82;85.89;101048.44;5083581;27;45283;-90
2022/10/27 11:15:40;;;;;;;;;9.00;7.00;;;;;20.01;87.36;101053.72;5083118;27;45401;-92
2022/10/27 11:18:18;;;;;;;;;6.25;6.25;;;;;20.16;88.10;101035.09;5084785;27;45581;-91
2022/10/27 11:20:48;;;;;;;;;5.25;5.25;;;;;19.84;87.47;100946.44;5085760;27;47287;-90
2022/10/27 11:23:23;;;;;;;;;8.00;7.00;;;;;20.63;86.42;101039.69;5086887;27;45477;-90
2022/10/27 11:25:48;;;;;;;;;6.00;4.50;;;;;20.45;87.31;100952.13;5087061;27;45240;-91
2022/10/27 11:28:43;;;;;;;;;8.25;6.75;;;;;20.85;84.00;100966.03;5088650;27;45353;-90
2022/10/27 11:31:19;;;;;;;;;7.75;5.75;;;;;20.93;84.32;100907.38;5085040;27;47274;-90
2022/10/27 11:34:18;;;;;;;;;5.25;5.25;;;;;22.18;84.77;101032.59;5077956;27;45496;-91